createdAt,value
2022-10-31T00:00:58.696Z,101069.3828125
2022-10-31T00:01:55.736Z,101063.90625
2022-10-31T00:02:55.611Z,101063.24609375
2022-10-31T00:03:56.056Z,101062.42578125
2022-10-31T00:04:55.780Z,101062.8359375
2022-10-31T00:05:55.661Z,101062.29296875
2022-10-31T00:06:55.712Z,101064.1796875
2022-10-31T00:07:55.677Z,101065.5234375
2022-10-31T00:08:55.938Z,101062.90625
2022-10-31T00:09:55.674Z,101062.94140625
2022-10-31T00:10:55.601Z,101059.6328125
2022-10-31T00:11:58.877Z,101062.015625
2022-10-31T00:12:55.663Z,101066.53515625
2022-10-31T00:13:56.030Z,101061.9140625
2022-10-31T00:14:55.687Z,101061.2109375
2022-10-31T00:15:55.722Z,101060.41796875
2022-10-31T00:16:55.754Z,101059.5390625
2022-10-31T00:17:55.926Z,101061.84765625
2022-10-31T00:18:56.012Z,101062.0703125
2022-10-31T00:19:55.647Z,101060.6796875
2022-10-31T00:20:55.593Z,101065.04296875
2022-10-31T00:21:55.599Z,101064.140625
2022-10-31T00:22:55.578Z,101066.1015625
2022-10-31T00:23:56.024Z,101064.8671875
2022-10-31T00:24:55.659Z,101068.55078125
2022-10-31T00:25:55.584Z,101069.78125
2022-10-31T00:26:55.715Z,101069.12109375
2022-10-31T00:27:59.003Z,101069.3359375
2022-10-31T00:28:55.949Z,101068.87109375
2022-10-31T00:29:55.789Z,101065.68359375
2022-10-31T00:30:55.786Z,101066.0703125
2022-10-31T00:31:55.747Z,101068.62109375
2022-10-31T00:32:55.616Z,101073.38671875
2022-10-31T00:33:55.983Z,101073.46875
2022-10-31T00:34:55.674Z,101075.0625
2022-10-31T00:35:55.759Z,101077.82421875
2022-10-31T00:36:55.675Z,101074.5390625
2022-10-31T00:37:55.582Z,101075.1484375
2022-10-31T00:39:01.628Z,101078.0234375
2022-10-31T00:39:55.662Z,101077.06640625
2022-10-31T00:40:55.610Z,101080.35546875
2022-10-31T00:41:55.562Z,101079.86328125
2022-10-31T00:42:55.616Z,101081.66796875
2022-10-31T00:43:56.016Z,101081.75
2022-10-31T00:44:55.692Z,101077.41796875
2022-10-31T00:45:58.357Z,101081.171875
2022-10-31T00:46:55.679Z,101079.47265625
2022-10-31T00:47:55.568Z,101082.453125
2022-10-31T00:48:56.023Z,101081.10546875
2022-10-31T00:49:58.582Z,101076.83203125
2022-10-31T00:50:55.738Z,101077.15625
2022-10-31T00:51:55.755Z,101079.07421875
2022-10-31T00:52:55.721Z,101080.6875
2022-10-31T00:53:55.936Z,101085.8359375
2022-10-31T00:54:55.644Z,101086.43359375
2022-10-31T00:55:55.705Z,101084.65234375
2022-10-31T00:56:55.726Z,101082.21484375
2022-10-31T00:57:55.797Z,101085.8359375
2022-10-31T00:58:56.183Z,101083.1953125
2022-10-31T00:59:55.768Z,101077.83203125
2022-10-31T01:00:58.667Z,101076.625
2022-10-31T01:01:55.956Z,101079.28125
2022-10-31T01:02:55.607Z,101077.8515625
2022-10-31T01:03:56.064Z,101081.87890625
2022-10-31T01:04:55.736Z,101081.40234375
2022-10-31T01:05:55.601Z,101083.80859375
2022-10-31T01:06:55.610Z,101082.66015625
2022-10-31T01:07:55.733Z,101085.0625
2022-10-31T01:08:55.950Z,101081.39453125
2022-10-31T01:09:55.707Z,101081.03125
2022-10-31T01:10:55.703Z,101080.03515625
2022-10-31T01:11:58.795Z,101084.50390625
2022-10-31T01:12:55.800Z,101083.45703125
2022-10-31T01:13:55.944Z,101085.046875
2022-10-31T01:14:55.786Z,101081.296875
2022-10-31T01:15:55.742Z,101084.1171875
2022-10-31T01:16:55.792Z,101086.33984375
2022-10-31T01:17:55.900Z,101083.27734375
2022-10-31T01:18:56.065Z,101086.453125
2022-10-31T01:19:55.588Z,101087.25390625
2022-10-31T01:20:55.602Z,101085.51171875
2022-10-31T01:21:55.590Z,101085.73046875
2022-10-31T01:22:58.709Z,101086.11328125
2022-10-31T01:23:55.950Z,101087.09765625
2022-10-31T01:24:55.725Z,101087.58984375
2022-10-31T01:25:55.686Z,101086.71484375
2022-10-31T01:26:55.577Z,101088.0546875
2022-10-31T01:27:55.583Z,101084.76953125
2022-10-31T01:28:55.993Z,101085.69921875
2022-10-31T01:29:55.588Z,101085.58984375
2022-10-31T01:30:55.592Z,101083.515625
2022-10-31T01:31:55.575Z,101086.76953125
2022-10-31T01:32:55.568Z,101083.5546875
2022-10-31T01:34:01.620Z,101086.6484375
2022-10-31T01:34:55.668Z,101080.296875
2022-10-31T01:35:55.667Z,101085.44921875
2022-10-31T01:36:55.672Z,101085.55859375
2022-10-31T01:37:55.779Z,101080.3828125
2022-10-31T01:38:55.935Z,101081.7578125
2022-10-31T01:39:55.574Z,101083.625
2022-10-31T01:40:55.601Z,101080.69140625
2022-10-31T01:41:55.641Z,101079.65625
2022-10-31T01:42:55.690Z,101075.71875
2022-10-31T01:43:56.018Z,101077.30859375
2022-10-31T01:44:58.701Z,101077.41015625
2022-10-31T01:45:55.657Z,101077.359375
2022-10-31T01:46:55.712Z,101077.6640625
2022-10-31T01:47:55.877Z,101077.5
2022-10-31T01:48:56.016Z,101078.15625
2022-10-31T01:49:55.674Z,101079.66015625
2022-10-31T01:50:55.592Z,101080.15234375
2022-10-31T01:51:55.588Z,101077.25390625
2022-10-31T01:52:55.696Z,101075.21875
2022-10-31T01:53:56.015Z,101072.59375
2022-10-31T01:54:55.639Z,101070.64453125
2022-10-31T01:55:58.561Z,101070.54296875
2022-10-31T01:56:55.824Z,101068.40234375
2022-10-31T01:57:55.599Z,101073.578125
2022-10-31T01:58:56.008Z,101073.0078125
2022-10-31T01:59:55.780Z,101072.9296875
2022-10-31T02:00:55.803Z,101068.875
2022-10-31T02:01:55.848Z,101068.68359375
2022-10-31T02:02:55.596Z,101064.28125
2022-10-31T02:03:56.015Z,101069.48046875
2022-10-31T02:04:55.778Z,101067.23828125
2022-10-31T02:05:55.703Z,101068.85546875
2022-10-31T02:06:58.620Z,101070.27734375
2022-10-31T02:07:55.760Z,101068.75
2022-10-31T02:08:56.035Z,101067.35546875
2022-10-31T02:09:55.642Z,101067.6015625
2022-10-31T02:10:55.593Z,101063.63671875
2022-10-31T02:11:55.560Z,101065.90234375
2022-10-31T02:12:55.591Z,101067.13671875
2022-10-31T02:13:56.011Z,101071.05078125
2022-10-31T02:14:55.807Z,101067.84375
2022-10-31T02:15:55.775Z,101068.46875
2022-10-31T02:16:55.725Z,101068.21875
2022-10-31T02:17:59.085Z,101065.2109375
2022-10-31T02:18:55.931Z,101068.80078125
2022-10-31T02:19:55.745Z,101066.69921875
2022-10-31T02:20:55.767Z,101066.3671875
2022-10-31T02:21:55.882Z,101067.0546875
2022-10-31T02:22:55.673Z,101065.35546875
2022-10-31T02:23:55.939Z,101067.05859375
2022-10-31T02:24:55.589Z,101065.41796875
2022-10-31T02:25:55.582Z,101065.578125
2022-10-31T02:26:55.710Z,101066.86328125
2022-10-31T02:27:55.729Z,101066.31640625
2022-10-31T02:29:01.620Z,101065.7734375
2022-10-31T02:29:55.691Z,101066.48046875
2022-10-31T02:30:55.722Z,101069.6015625
2022-10-31T02:31:55.772Z,101067.87109375
2022-10-31T02:32:55.694Z,101072.390625
2022-10-31T02:33:55.939Z,101069.9296875
2022-10-31T02:34:55.555Z,101070.47265625
2022-10-31T02:35:55.578Z,101067.05859375
2022-10-31T02:36:55.590Z,101066.20703125
2022-10-31T02:37:55.566Z,101069.59765625
2022-10-31T02:38:56.020Z,101071.625
2022-10-31T02:39:58.721Z,101069.6015625
2022-10-31T02:40:55.754Z,101071.546875
2022-10-31T02:41:55.650Z,101070.72265625
2022-10-31T02:42:55.729Z,101068.96875
2022-10-31T02:43:55.946Z,101069.08203125
2022-10-31T02:44:55.680Z,101070.28125
2022-10-31T02:45:55.672Z,101066.37109375
2022-10-31T02:46:55.731Z,101070.94140625
2022-10-31T02:47:58.205Z,101066.42578125
2022-10-31T02:48:55.977Z,101064.49609375
2022-10-31T02:49:55.649Z,101069.75390625
2022-10-31T02:50:58.595Z,101066.9609375
2022-10-31T02:51:55.778Z,101068.3828125
2022-10-31T02:52:55.700Z,101069.12890625
2022-10-31T02:53:56.098Z,101070.47265625
2022-10-31T02:54:55.688Z,101067.37890625
2022-10-31T02:55:55.583Z,101072.25
2022-10-31T02:56:55.595Z,101071.73046875
2022-10-31T02:57:55.587Z,101070.9609375
2022-10-31T02:58:56.011Z,101075.26171875
2022-10-31T02:59:55.693Z,101073.01953125
2022-10-31T03:00:55.678Z,101072.5546875
2022-10-31T03:01:58.808Z,101073.921875
2022-10-31T03:02:55.766Z,101074.25390625
2022-10-31T03:03:56.018Z,101075.1796875
2022-10-31T03:04:55.789Z,101072.39453125
2022-10-31T03:05:55.589Z,101069.90234375
2022-10-31T03:06:55.673Z,101068.04296875
2022-10-31T03:07:55.594Z,101068.37109375
2022-10-31T03:08:56.065Z,101061.8828125
2022-10-31T03:09:55.758Z,101061.12109375
2022-10-31T03:10:55.652Z,101062.87109375
2022-10-31T03:11:55.734Z,101063.90625
2022-10-31T03:12:58.625Z,101064.4296875
2022-10-31T03:13:55.989Z,101066.99609375
2022-10-31T03:14:55.764Z,101066.0703125
2022-10-31T03:15:55.603Z,101063.71484375
2022-10-31T03:16:55.703Z,101067.37890625
2022-10-31T03:17:55.784Z,101063.33203125
2022-10-31T03:18:55.948Z,101058.19140625
2022-10-31T03:19:55.703Z,101061.85546875
2022-10-31T03:20:55.803Z,101059.83203125
2022-10-31T03:21:55.664Z,101060.43359375
2022-10-31T03:22:55.695Z,101058.4921875
2022-10-31T03:24:01.585Z,101059.75
2022-10-31T03:24:55.638Z,101062.07421875
2022-10-31T03:25:55.686Z,101060.97265625
2022-10-31T03:26:55.738Z,101060.04296875
2022-10-31T03:27:55.837Z,101059.0546875
2022-10-31T03:28:56.019Z,101063.90625
2022-10-31T03:29:55.716Z,101063.68359375
2022-10-31T03:30:55.588Z,101060.01953125
2022-10-31T03:31:55.660Z,101058.671875
2022-10-31T03:32:55.720Z,101057.609375
2022-10-31T03:33:55.947Z,101061.65625
2022-10-31T03:34:58.567Z,101056.23828125
2022-10-31T03:35:55.645Z,101059.21875
2022-10-31T03:36:55.637Z,101056.54296875
2022-10-31T03:37:55.576Z,101055.93359375
2022-10-31T03:38:56.053Z,101052.57421875
2022-10-31T03:39:55.650Z,101061.33203125
2022-10-31T03:40:55.572Z,101056.921875
2022-10-31T03:41:55.557Z,101056.10546875
2022-10-31T03:42:55.598Z,101057.4140625
2022-10-31T03:43:56.026Z,101058.56640625
2022-10-31T03:44:57.826Z,101055.640625
2022-10-31T03:45:58.711Z,101058.21875
2022-10-31T03:46:55.681Z,101054.08203125
2022-10-31T03:47:55.669Z,101052.16796875
2022-10-31T03:48:56.144Z,101055.62109375
2022-10-31T03:49:55.769Z,101051.98046875
2022-10-31T03:50:55.725Z,101056.8515625
2022-10-31T03:51:55.582Z,101058.66015625
2022-10-31T03:52:55.702Z,101052.4140625
2022-10-31T03:53:56.020Z,101055.31640625
2022-10-31T03:54:55.653Z,101055.53515625
2022-10-31T03:55:55.568Z,101061.30859375
2022-10-31T03:56:58.687Z,101053.8671875
2022-10-31T03:57:55.760Z,101053.8671875
2022-10-31T03:58:55.702Z,101057.53125
2022-10-31T03:59:55.588Z,101058.32421875
2022-10-31T04:00:55.596Z,101055.8671875
2022-10-31T04:01:55.743Z,101053.8125
2022-10-31T04:02:55.593Z,101055.97265625
2022-10-31T04:03:56.046Z,101055.99609375
2022-10-31T04:04:55.758Z,101049.35546875
2022-10-31T04:05:55.680Z,101050.69140625
2022-10-31T04:06:55.653Z,101054.41015625
2022-10-31T04:07:58.689Z,101052.49609375
2022-10-31T04:08:55.963Z,101053.48046875
2022-10-31T04:09:55.760Z,101051.87109375
2022-10-31T04:10:55.565Z,101050.99609375
2022-10-31T04:11:55.582Z,101048.7734375
2022-10-31T04:12:55.596Z,101049.98046875
2022-10-31T04:13:56.099Z,101050.96875
2022-10-31T04:14:55.581Z,101049.48828125
2022-10-31T04:15:55.586Z,101048.80078125
2022-10-31T04:16:55.565Z,101044.23046875
2022-10-31T04:17:55.593Z,101037.1953125
2022-10-31T04:19:01.598Z,101037.6328125
2022-10-31T04:19:55.774Z,101039.49609375
2022-10-31T04:20:55.708Z,101042.06640625
2022-10-31T04:21:55.577Z,101041.953125
2022-10-31T04:22:55.719Z,101039.1875
2022-10-31T04:23:55.959Z,101041.44921875
2022-10-31T04:24:55.577Z,101043.4375
2022-10-31T04:25:55.673Z,101046.08203125
2022-10-31T04:26:55.692Z,101043.94921875
2022-10-31T04:27:55.792Z,101042.80078125
2022-10-31T04:28:55.945Z,101048.16015625
2022-10-31T04:29:58.718Z,101048.8515625
2022-10-31T04:30:55.777Z,101054.6640625
2022-10-31T04:31:55.697Z,101054.57421875
2022-10-31T04:32:55.718Z,101049.26953125
2022-10-31T04:33:56.077Z,101052.75
2022-10-31T04:34:55.647Z,101053.37109375
2022-10-31T04:35:55.597Z,101051.94921875
2022-10-31T04:36:55.697Z,101054.1875
2022-10-31T04:37:55.572Z,101058.7109375
2022-10-31T04:38:55.999Z,101057.05078125
2022-10-31T04:39:55.748Z,101063.17578125
2022-10-31T04:40:58.583Z,101060.55078125
2022-10-31T04:41:55.675Z,101062.46484375
2022-10-31T04:42:55.728Z,101061.33203125
2022-10-31T04:43:55.953Z,101067.23828125
2022-10-31T04:44:55.789Z,101065.81640625
2022-10-31T04:45:55.645Z,101068.4453125
2022-10-31T04:46:55.737Z,101064.015625
2022-10-31T04:47:55.701Z,101069.64453125
2022-10-31T04:48:56.029Z,101071.61328125
2022-10-31T04:49:55.778Z,101074.34765625
2022-10-31T04:50:55.761Z,101073.76171875
2022-10-31T04:51:58.581Z,101076.66015625
2022-10-31T04:52:55.771Z,101076.875
2022-10-31T04:53:55.779Z,101074.69140625
2022-10-31T04:54:55.577Z,101078.40625
2022-10-31T04:55:55.591Z,101076.875
2022-10-31T04:56:55.666Z,101077.3125
2022-10-31T04:57:55.618Z,101078.625
2022-10-31T04:58:55.718Z,101074.796875
2022-10-31T04:59:55.695Z,101073.3203125
2022-10-31T05:00:55.662Z,101071.30078125
2022-10-31T05:01:55.738Z,101069.48046875
2022-10-31T05:02:59.028Z,101066.19921875
2022-10-31T05:03:55.940Z,101069.5390625
2022-10-31T05:04:55.780Z,101069.57421875
2022-10-31T05:05:55.637Z,101074.3828125
2022-10-31T05:06:55.644Z,101072.96484375
2022-10-31T05:07:55.694Z,101072.8359375
2022-10-31T05:08:55.950Z,101073.421875
2022-10-31T05:09:55.623Z,101076.5390625
2022-10-31T05:10:58.171Z,101065.96484375
2022-10-31T05:11:55.670Z,101062.51953125
2022-10-31T05:12:55.731Z,101060.19921875
2022-10-31T05:14:01.596Z,101056.8671875
2022-10-31T05:14:55.670Z,101057.46875
2022-10-31T05:15:55.698Z,101049.31640625
2022-10-31T05:16:55.597Z,101049.61328125
2022-10-31T05:17:55.605Z,101048.95703125
2022-10-31T05:18:56.023Z,101044.0859375
2022-10-31T05:19:55.574Z,101048.16796875
2022-10-31T05:20:55.585Z,101048.55078125
2022-10-31T05:21:55.589Z,101050.38671875
2022-10-31T05:22:55.571Z,101053.5078125
2022-10-31T05:23:56.025Z,101052.1953125
2022-10-31T05:24:58.701Z,101053.55859375
2022-10-31T05:25:55.769Z,101047.32421875
2022-10-31T05:26:55.656Z,101043.90234375
2022-10-31T05:27:55.724Z,101042.234375
2022-10-31T05:28:55.948Z,101041.96484375
2022-10-31T05:29:55.877Z,101036.73828125
2022-10-31T05:30:55.724Z,101035.23046875
2022-10-31T05:31:55.735Z,101035.46875
2022-10-31T05:32:55.789Z,101037.328125
2022-10-31T05:33:56.153Z,101034.9765625
2022-10-31T05:34:55.603Z,101037.328125
2022-10-31T05:35:58.713Z,101036.125
2022-10-31T05:36:55.775Z,101039.48046875
2022-10-31T05:37:55.598Z,101044.94921875
2022-10-31T05:38:56.031Z,101047.390625
2022-10-31T05:39:55.661Z,101048.4296875
2022-10-31T05:40:55.641Z,101048.1015625
2022-10-31T05:41:55.558Z,101045.3125
2022-10-31T05:42:55.610Z,101044
2022-10-31T05:43:56.026Z,101043.8359375
2022-10-31T05:44:55.647Z,101041.6484375
2022-10-31T05:45:55.735Z,101044.546875
2022-10-31T05:46:58.588Z,101047.828125
2022-10-31T05:47:55.699Z,101047.75
2022-10-31T05:48:58.720Z,101048.57421875
2022-10-31T05:49:55.706Z,101050.32421875
2022-10-31T05:50:55.591Z,101050.78125
2022-10-31T05:51:55.698Z,101052.1484375
2022-10-31T05:52:55.601Z,101052.01953125
2022-10-31T05:53:56.026Z,101049.44921875
2022-10-31T05:54:55.683Z,101047.86328125
2022-10-31T05:55:55.579Z,101048.30078125
2022-10-31T05:56:55.732Z,101046.36328125
2022-10-31T05:57:59.163Z,101045.16015625
2022-10-31T05:58:55.953Z,101045.234375
2022-10-31T05:59:55.763Z,101046.109375
2022-10-31T06:00:55.690Z,101042.15234375
2022-10-31T06:01:55.775Z,101048.44140625
2022-10-31T06:02:55.970Z,101046.88671875
2022-10-31T06:03:55.996Z,101046.66796875
2022-10-31T06:04:55.678Z,101046.09765625
2022-10-31T06:05:55.679Z,101046.56640625
2022-10-31T06:06:55.696Z,101046.015625
2022-10-31T06:07:55.590Z,101044.703125
2022-10-31T06:09:01.640Z,101043.0625
2022-10-31T06:09:55.765Z,101042.67578125
2022-10-31T06:10:55.770Z,101038.11328125
2022-10-31T06:11:55.750Z,101041.5078125
2022-10-31T06:12:55.679Z,101041.66796875
2022-10-31T06:13:55.622Z,101039.6953125
2022-10-31T06:14:55.599Z,101042.92578125
2022-10-31T06:15:55.688Z,101044.45703125
2022-10-31T06:16:55.739Z,101039.671875
2022-10-31T06:17:55.737Z,101040.8203125
2022-10-31T06:18:55.960Z,101039.5625
2022-10-31T06:19:58.565Z,101037.91796875
2022-10-31T06:20:55.808Z,101039.06640625
2022-10-31T06:21:55.747Z,101037.64453125
2022-10-31T06:22:55.670Z,101039.94140625
2022-10-31T06:23:55.957Z,101038.4375
2022-10-31T06:24:55.696Z,101037.890625
2022-10-31T06:25:55.562Z,101039.50390625
2022-10-31T06:26:55.574Z,101041.27734375
2022-10-31T06:27:55.579Z,101042.32421875
2022-10-31T06:28:58.755Z,101042.62109375
2022-10-31T06:29:55.795Z,101047.30078125
2022-10-31T06:30:58.582Z,101046.234375
2022-10-31T06:31:55.682Z,101045.85546875
2022-10-31T06:32:55.680Z,101049.40625
2022-10-31T06:33:55.949Z,101048.2890625
2022-10-31T06:34:55.787Z,101047.95703125
2022-10-31T06:35:55.724Z,101046.69921875
2022-10-31T06:36:55.720Z,101047.51953125
2022-10-31T06:37:55.692Z,101040.546875
2022-10-31T06:38:55.695Z,101043.66796875
2022-10-31T06:39:55.786Z,101042.70703125
2022-10-31T06:40:55.661Z,101042.58984375
2022-10-31T06:41:58.690Z,101040.15234375
2022-10-31T06:42:55.752Z,101041.953125
2022-10-31T06:43:55.598Z,101043.3125
2022-10-31T06:44:55.731Z,101042.921875
2022-10-31T06:45:55.758Z,101045.4375
2022-10-31T06:46:55.675Z,101048.24609375
2022-10-31T06:48:15.682Z,101050.26953125
2022-10-31T06:48:56.020Z,101050.78125
2022-10-31T06:49:55.684Z,101051.02734375
2022-10-31T06:50:59.527Z,101052.5
2022-10-31T06:51:55.711Z,101059.30859375
2022-10-31T06:52:58.770Z,101058.39453125
2022-10-31T06:53:55.996Z,101057.3671875
2022-10-31T06:54:55.737Z,101059.015625
2022-10-31T06:55:55.716Z,101058.51171875
2022-10-31T06:56:55.717Z,101057.75390625
2022-10-31T06:57:58.870Z,101059.07421875
2022-10-31T06:58:55.945Z,101060.01171875
2022-10-31T06:59:55.582Z,101057.8828125
2022-10-31T07:00:55.613Z,101054.3671875
2022-10-31T07:01:55.880Z,101054.7265625
2022-10-31T07:02:55.761Z,101057.78125
2022-10-31T07:04:01.638Z,101061.890625
2022-10-31T07:04:55.776Z,101058.0625
2022-10-31T07:05:55.790Z,101059.23046875
2022-10-31T07:06:55.756Z,101066.5234375
2022-10-31T07:07:55.687Z,101060.44140625
2022-10-31T07:08:55.945Z,101063.21875
2022-10-31T07:09:55.594Z,101060.99609375
2022-10-31T07:10:55.591Z,101062.07421875
2022-10-31T07:11:55.599Z,101064.44140625
2022-10-31T07:12:55.725Z,101067.65625
2022-10-31T07:13:55.949Z,101068.21484375
2022-10-31T07:14:58.561Z,101068.75
2022-10-31T07:15:55.671Z,101065.37109375
2022-10-31T07:16:55.594Z,101067.77734375
2022-10-31T07:17:55.683Z,101067.9765625
2022-10-31T07:18:56.071Z,101063.875
2022-10-31T07:19:55.783Z,101066.265625
2022-10-31T07:20:55.709Z,101061.0625
2022-10-31T07:21:55.722Z,101062.22265625
2022-10-31T07:22:55.707Z,101063.75390625
2022-10-31T07:23:56.015Z,101064.61328125
2022-10-31T07:24:55.662Z,101066.69921875
2022-10-31T07:25:58.716Z,101065.26953125
2022-10-31T07:26:55.824Z,101069.484375
2022-10-31T07:27:55.674Z,101065.22265625
2022-10-31T07:28:56.020Z,101065.046875
2022-10-31T07:29:55.769Z,101063.80859375
2022-10-31T07:30:55.729Z,101065.71484375
2022-10-31T07:31:55.726Z,101066.69921875
2022-10-31T07:32:55.629Z,101061.76953125
2022-10-31T07:33:56.026Z,101067.0546875
2022-10-31T07:34:55.716Z,101066.9296875
2022-10-31T07:35:55.719Z,101066.44921875
2022-10-31T07:36:58.582Z,101066.9375
2022-10-31T07:37:55.718Z,101069.23046875
2022-10-31T07:38:56.076Z,101070.35546875
2022-10-31T07:39:55.790Z,101074.85546875
2022-10-31T07:40:55.789Z,101072.48046875
2022-10-31T07:41:55.745Z,101074.4765625
2022-10-31T07:42:55.730Z,101070.296875
2022-10-31T07:43:56.085Z,101072.7265625
2022-10-31T07:44:57.659Z,101067.7265625
2022-10-31T07:45:55.704Z,101065.73828125
2022-10-31T07:46:55.681Z,101064.5546875
2022-10-31T07:47:59.153Z,101067.8828125
2022-10-31T07:48:56.165Z,101069.96484375
2022-10-31T07:49:55.763Z,101067.0859375
2022-10-31T07:50:55.769Z,101066.921875
2022-10-31T07:51:55.683Z,101064.046875
2022-10-31T07:52:55.717Z,101067.98046875
2022-10-31T07:53:55.945Z,101059.6953125
2022-10-31T07:54:55.723Z,101056.6015625
2022-10-31T07:55:55.661Z,101061.62109375
2022-10-31T07:56:55.562Z,101063.15625
2022-10-31T07:57:55.651Z,101066.3203125
2022-10-31T07:59:01.607Z,101065.48828125
2022-10-31T07:59:55.664Z,101064.5546875
2022-10-31T08:00:55.826Z,101067.57421875
2022-10-31T08:01:55.583Z,101066.3984375
2022-10-31T08:02:55.651Z,101068.984375
2022-10-31T08:03:55.954Z,101066.296875
2022-10-31T08:04:58.575Z,101065.47265625
2022-10-31T08:05:55.727Z,101067.41796875
2022-10-31T08:06:55.773Z,101064.2578125
2022-10-31T08:07:55.694Z,101059.86328125
2022-10-31T08:08:55.989Z,101061.36328125
2022-10-31T08:09:58.613Z,101062.75390625
2022-10-31T08:10:55.719Z,101062.24609375
2022-10-31T08:11:55.746Z,101062.0703125
2022-10-31T08:12:56.429Z,101058.625
2022-10-31T08:13:55.944Z,101060.546875
2022-10-31T08:14:55.801Z,101055.43359375
2022-10-31T08:15:55.679Z,101056.49609375
2022-10-31T08:16:55.594Z,101054.86328125
2022-10-31T08:17:55.724Z,101055.21484375
2022-10-31T08:18:55.953Z,101058.4921875
2022-10-31T08:19:55.659Z,101053.28125
2022-10-31T08:20:58.592Z,101049.19921875
2022-10-31T08:21:55.668Z,101049.0390625
2022-10-31T08:22:55.721Z,101047.41796875
2022-10-31T08:23:55.959Z,101048.3671875
2022-10-31T08:24:55.743Z,101050.75
2022-10-31T08:25:55.688Z,101053.60546875
2022-10-31T08:26:55.593Z,101056.73828125
2022-10-31T08:27:55.716Z,101055.0859375
2022-10-31T08:28:55.994Z,101052.9375
2022-10-31T08:29:55.790Z,101054.1484375
2022-10-31T08:30:55.687Z,101051.36328125
2022-10-31T08:31:58.707Z,101051.4921875
2022-10-31T08:32:55.699Z,101050.875
2022-10-31T08:33:56.089Z,101052.66015625
2022-10-31T08:34:55.680Z,101050.66015625
2022-10-31T08:35:55.693Z,101052.046875
2022-10-31T08:36:55.695Z,101053.5859375
2022-10-31T08:37:55.725Z,101052.44921875
2022-10-31T08:39:01.459Z,101052.2578125
2022-10-31T08:39:55.678Z,101052.078125
2022-10-31T08:40:55.732Z,101052
2022-10-31T08:41:55.580Z,101051.84375
2022-10-31T08:42:58.596Z,101046.84375
2022-10-31T08:43:55.959Z,101045.73046875
2022-10-31T08:44:55.811Z,101045.796875
2022-10-31T08:45:55.669Z,101044.703125
2022-10-31T08:46:55.594Z,101042.28125
2022-10-31T08:47:55.591Z,101044.27734375
2022-10-31T08:48:55.955Z,101044.61328125
2022-10-31T08:49:55.653Z,101037.66796875
2022-10-31T08:50:55.781Z,101046.08203125
2022-10-31T08:51:55.796Z,101040.94921875
2022-10-31T08:53:04.871Z,101042.6171875
2022-10-31T08:54:01.650Z,101039.4296875
2022-10-31T08:54:55.674Z,101036.29296875
2022-10-31T08:55:55.676Z,101037.33984375
2022-10-31T08:56:55.698Z,101035.3125
2022-10-31T08:57:55.760Z,101036.8359375
2022-10-31T08:58:55.952Z,101037.5546875
2022-10-31T08:59:55.584Z,101035.328125
2022-10-31T09:00:55.777Z,101038.26953125
2022-10-31T09:01:55.820Z,101036.31640625
2022-10-31T09:02:55.602Z,101038.9921875
2022-10-31T09:03:55.952Z,101037.16796875
2022-10-31T09:04:58.721Z,101034.8515625
2022-10-31T09:05:55.771Z,101037.23828125
2022-10-31T09:07:20.595Z,101033.74609375
2022-10-31T09:07:55.568Z,101032.94140625
2022-10-31T09:08:56.131Z,101035.453125
2022-10-31T09:09:55.682Z,101036.16796875
2022-10-31T09:10:55.602Z,101039.421875
2022-10-31T09:11:55.585Z,101037.5
2022-10-31T09:12:55.701Z,101036.828125
2022-10-31T09:13:56.037Z,101038.296875
2022-10-31T09:14:55.752Z,101033.51171875
2022-10-31T09:15:58.573Z,101034.44921875
2022-10-31T09:16:55.672Z,101032.30078125
2022-10-31T09:17:55.724Z,101031.6015625
2022-10-31T09:18:56.070Z,101030.94140625
2022-10-31T09:19:55.661Z,101027.75
2022-10-31T09:20:55.588Z,101027.94921875
2022-10-31T09:21:55.577Z,101020.97265625
2022-10-31T09:22:55.569Z,101020.50390625
2022-10-31T09:23:56.031Z,101022.48046875
2022-10-31T09:24:55.798Z,101018.66015625
2022-10-31T09:25:55.659Z,101018.91015625
2022-10-31T09:26:58.699Z,101018.95703125
2022-10-31T09:27:55.669Z,101013.2890625
2022-10-31T09:28:56.070Z,101012.82421875
2022-10-31T09:29:55.661Z,101013.6953125
2022-10-31T09:30:55.715Z,101014.93359375
2022-10-31T09:31:55.654Z,101012.19921875
2022-10-31T09:32:55.667Z,101009.23828125
2022-10-31T09:33:56.023Z,101007.6875
2022-10-31T09:34:55.788Z,101009.24609375
2022-10-31T09:35:55.696Z,101010.99609375
2022-10-31T09:36:55.587Z,101009.57421875
2022-10-31T09:37:59.045Z,101008.5859375
2022-10-31T09:38:55.998Z,101007.40625
2022-10-31T09:39:55.690Z,101009.78515625
2022-10-31T09:40:55.710Z,101006.19921875
2022-10-31T09:41:57.078Z,101006.41796875
2022-10-31T09:42:55.669Z,101008.140625
2022-10-31T09:43:55.994Z,101004.6015625
2022-10-31T09:44:55.665Z,101006.44140625
2022-10-31T09:45:55.797Z,101008.53515625
2022-10-31T09:46:55.775Z,101008.2890625
2022-10-31T09:47:55.568Z,101009.90625
2022-10-31T09:49:01.627Z,101010.1875
2022-10-31T09:49:55.870Z,101009.16015625
2022-10-31T09:50:55.668Z,101008.69921875
2022-10-31T09:51:55.652Z,101005.06640625
2022-10-31T09:52:55.605Z,101008.47265625
2022-10-31T09:53:56.125Z,101007.984375
2022-10-31T09:54:55.737Z,101003.3359375
2022-10-31T09:55:55.732Z,101002.9921875
2022-10-31T09:56:55.770Z,100999.73046875
2022-10-31T09:57:55.683Z,100999.21484375
2022-10-31T09:58:56.026Z,100993.65625